createdAt,value
2023-02-12T00:00:10.776Z,47.91
2023-02-12T00:01:10.758Z,49.90
2023-02-12T00:02:10.807Z,50.88
2023-02-12T00:03:10.788Z,49.15
2023-02-12T00:04:10.770Z,46.80
2023-02-12T00:05:10.737Z,46.44
2023-02-12T00:06:10.763Z,52.74
2023-02-12T00:07:10.755Z,49.98
2023-02-12T00:08:10.724Z,47.98
2023-02-12T00:09:10.761Z,47.69
2023-02-12T00:10:10.722Z,52.53
2023-02-12T00:11:10.713Z,51.14
2023-02-12T00:12:10.692Z,47.94
2023-02-12T00:13:10.773Z,49.82
2023-02-12T00:14:10.738Z,49.40
2023-02-12T00:15:10.667Z,48.54
2023-02-12T00:16:10.729Z,50.38
2023-02-12T00:17:10.707Z,46.44
2023-02-12T00:18:10.675Z,50.73
2023-02-12T00:19:10.695Z,47.28
2023-02-12T00:20:10.657Z,49.35
2023-02-12T00:21:10.641Z,49.99
2023-02-12T00:22:10.677Z,49.06
2023-02-12T00:23:10.671Z,48.25
2023-02-12T00:24:10.681Z,47.50
2023-02-12T00:25:10.667Z,51.04
2023-02-12T00:26:10.656Z,48.73
2023-02-12T00:27:10.641Z,48.95
2023-02-12T00:28:10.664Z,50.28
2023-02-12T00:29:10.595Z,46.33
2023-02-12T00:30:10.618Z,46.91
2023-02-12T00:31:10.845Z,53.31
2023-02-12T00:32:10.664Z,48.53
2023-02-12T00:33:10.582Z,49.89
2023-02-12T00:34:10.585Z,48.50
2023-02-12T00:35:10.558Z,46.98
2023-02-12T00:36:10.553Z,47.42
2023-02-12T00:37:10.597Z,46.40
2023-02-12T00:38:10.580Z,47.21
2023-02-12T00:39:10.602Z,48.06
2023-02-12T00:40:10.545Z,49.87
2023-02-12T00:41:10.549Z,48.66
2023-02-12T00:42:10.551Z,48.05
2023-02-12T00:43:10.632Z,49.24
2023-02-12T00:44:10.528Z,47.81
2023-02-12T00:45:10.531Z,46.37
2023-02-12T00:46:10.617Z,48.91
2023-02-12T00:47:10.548Z,46.28
2023-02-12T00:48:10.498Z,46.35
2023-02-12T00:49:11.518Z,49.09
2023-02-12T00:50:10.484Z,47.98
2023-02-12T00:51:10.554Z,46.33
2023-02-12T00:52:10.511Z,46.78
2023-02-12T00:53:11.476Z,49.87
2023-02-12T00:54:10.481Z,50.27
2023-02-12T00:55:10.502Z,45.98
2023-02-12T00:56:10.445Z,48.07
2023-02-12T00:57:10.449Z,47.25
2023-02-12T00:58:10.436Z,47.99
2023-02-12T00:59:10.467Z,50.01
2023-02-12T01:00:10.418Z,50.57
2023-02-12T01:01:10.447Z,49.16
2023-02-12T01:02:10.416Z,47.94
2023-02-12T01:03:10.437Z,46.26
2023-02-12T01:04:10.390Z,46.86
2023-02-12T01:05:10.464Z,47.96
2023-02-12T01:06:10.422Z,47.14
2023-02-12T01:07:10.410Z,47.15
2023-02-12T01:08:10.398Z,46.66
2023-02-12T01:09:10.381Z,47.09
2023-02-12T01:10:10.354Z,49.55
2023-02-12T01:11:10.413Z,46.54
2023-02-12T01:12:10.375Z,47.25
2023-02-12T01:13:10.365Z,48.17
2023-02-12T01:14:10.370Z,47.63
2023-02-12T01:15:10.331Z,52.86
2023-02-12T01:16:10.477Z,47.49
2023-02-12T01:17:10.342Z,46.37
2023-02-12T01:18:10.320Z,47.37
2023-02-12T01:19:10.345Z,50.07
2023-02-12T01:20:10.329Z,47.97
2023-02-12T01:21:10.318Z,47.46
2023-02-12T01:22:10.315Z,48.83
2023-02-12T01:23:10.332Z,49.37
2023-02-12T01:24:10.342Z,55.34
2023-02-12T01:25:10.329Z,47.80
2023-02-12T01:26:10.280Z,47.84
2023-02-12T01:27:10.279Z,49.22
2023-02-12T01:28:10.312Z,46.47
2023-02-12T01:29:10.290Z,48.58
2023-02-12T01:30:10.298Z,46.59
2023-02-12T01:31:10.416Z,49.80
2023-02-12T01:32:10.326Z,48.88
2023-02-12T01:33:10.245Z,46.77
2023-02-12T01:34:10.369Z,47.04
2023-02-12T01:35:10.223Z,49.42
2023-02-12T01:36:10.239Z,47.20
2023-02-12T01:37:10.218Z,47.93
2023-02-12T01:38:10.211Z,47.89
2023-02-12T01:39:10.218Z,48.69
2023-02-12T01:40:10.248Z,49.33
2023-02-12T01:41:10.217Z,46.79
2023-02-12T01:42:10.216Z,48.74
2023-02-12T01:43:10.160Z,49.16
2023-02-12T01:44:10.205Z,48.54
2023-02-12T01:45:10.219Z,46.30
2023-02-12T01:46:10.193Z,46.23
2023-02-12T01:47:10.174Z,47.36
2023-02-12T01:48:10.160Z,47.75
2023-02-12T01:49:10.205Z,46.63
2023-02-12T01:50:10.176Z,46.31
2023-02-12T01:51:10.192Z,47.86
2023-02-12T01:52:10.180Z,46.29
2023-02-12T01:53:10.155Z,46.15
2023-02-12T01:54:10.141Z,45.93
2023-02-12T01:55:10.179Z,47.35
2023-02-12T01:56:10.111Z,46.26
2023-02-12T01:57:10.115Z,47.51
2023-02-12T01:58:10.154Z,52.72
2023-02-12T01:59:10.120Z,46.91
2023-02-12T02:00:10.135Z,46.40
2023-02-12T02:01:10.100Z,49.01
2023-02-12T02:02:10.125Z,46.56
2023-02-12T02:03:10.203Z,46.34
2023-02-12T02:04:10.123Z,48.06
2023-02-12T02:05:10.081Z,47.87
2023-02-12T02:06:10.083Z,46.26
2023-02-12T02:07:10.069Z,47.41
2023-02-12T02:08:10.098Z,46.19
2023-02-12T02:09:10.040Z,47.34
2023-02-12T02:10:10.086Z,46.31
2023-02-12T02:11:10.050Z,47.88
2023-02-12T02:12:10.064Z,46.27
2023-02-12T02:13:10.025Z,46.23
2023-02-12T02:14:10.062Z,46.40
2023-02-12T02:15:10.026Z,47.55
2023-02-12T02:16:10.056Z,46.92
2023-02-12T02:17:10.041Z,46.81
2023-02-12T02:18:10.028Z,46.35
2023-02-12T02:19:09.981Z,46.36
2023-02-12T02:20:09.997Z,46.62
2023-02-12T02:21:09.980Z,48.62
2023-02-12T02:22:09.970Z,46.51
2023-02-12T02:23:10.037Z,46.81
2023-02-12T02:24:09.981Z,46.80
2023-02-12T02:25:09.956Z,46.17
2023-02-12T02:26:09.957Z,46.36
2023-02-12T02:27:09.973Z,46.77
2023-02-12T02:28:09.988Z,46.65
2023-02-12T02:29:09.938Z,48.46
2023-02-12T02:30:09.918Z,48.06
2023-02-12T02:31:10.073Z,50.26
2023-02-12T02:32:09.951Z,46.42
2023-02-12T02:33:09.915Z,46.42
2023-02-12T02:34:09.931Z,46.36
2023-02-12T02:35:09.932Z,46.37
2023-02-12T02:36:09.894Z,46.37
2023-02-12T02:37:09.913Z,46.31
2023-02-12T02:38:09.915Z,48.03
2023-02-12T02:39:09.860Z,50.50
2023-02-12T02:40:09.889Z,49.13
2023-02-12T02:41:09.880Z,46.37
2023-02-12T02:42:09.866Z,46.33
2023-02-12T02:43:09.929Z,49.82
2023-02-12T02:44:09.825Z,49.67
2023-02-12T02:45:09.837Z,46.76
2023-02-12T02:46:09.855Z,46.50
2023-02-12T02:47:09.839Z,46.64
2023-02-12T02:48:09.858Z,47.84
2023-02-12T02:49:09.812Z,47.58
2023-02-12T02:50:09.815Z,46.40
2023-02-12T02:51:09.834Z,46.29
2023-02-12T02:52:09.788Z,47.96
2023-02-12T02:53:09.840Z,47.70
2023-02-12T02:54:09.769Z,48.35
2023-02-12T02:55:09.798Z,53.73
2023-02-12T02:56:09.802Z,46.42
2023-02-12T02:57:09.780Z,46.23
2023-02-12T02:58:09.829Z,46.21
2023-02-12T02:59:09.792Z,46.27
2023-02-12T03:00:09.742Z,47.71
2023-02-12T03:01:10.030Z,46.36
2023-02-12T03:02:09.761Z,46.61
2023-02-12T03:03:09.804Z,49.51
2023-02-12T03:04:09.796Z,46.10
2023-02-12T03:05:09.705Z,46.41
2023-02-12T03:06:09.744Z,47.84
2023-02-12T03:07:09.734Z,46.43
2023-02-12T03:08:09.727Z,46.96
2023-02-12T03:09:09.728Z,46.37
2023-02-12T03:10:09.687Z,46.33
2023-02-12T03:11:09.689Z,47.37
2023-02-12T03:12:09.679Z,46.89
2023-02-12T03:13:09.676Z,46.33
2023-02-12T03:14:09.695Z,46.29
2023-02-12T03:15:09.728Z,46.31
2023-02-12T03:16:09.836Z,46.30
2023-02-12T03:17:09.661Z,47.34
2023-02-12T03:18:09.668Z,46.48
2023-02-12T03:19:09.719Z,47.31
2023-02-12T03:20:09.660Z,46.37
2023-02-12T03:21:09.627Z,46.37
2023-02-12T03:22:09.617Z,46.44
2023-02-12T03:23:09.641Z,47.21
2023-02-12T03:24:09.668Z,47.03
2023-02-12T03:25:09.631Z,46.44
2023-02-12T03:26:09.639Z,46.24
2023-02-12T03:27:09.613Z,46.31
2023-02-12T03:28:09.667Z,46.27
2023-02-12T03:29:09.640Z,46.27
2023-02-12T03:30:09.633Z,46.28
2023-02-12T03:31:09.760Z,46.60
2023-02-12T03:32:09.628Z,46.70
2023-02-12T03:33:09.600Z,46.23
2023-02-12T03:34:09.603Z,46.30
2023-02-12T03:35:09.558Z,46.30
2023-02-12T03:36:09.610Z,46.25
2023-02-12T03:37:09.558Z,49.22
2023-02-12T03:38:09.583Z,49.26
2023-02-12T03:39:09.545Z,46.77
2023-02-12T03:40:09.559Z,48.41
2023-02-12T03:41:09.538Z,47.35
2023-02-12T03:42:09.595Z,47.09
2023-02-12T03:43:09.520Z,47.83
2023-02-12T03:44:09.532Z,50.59
2023-02-12T03:45:09.510Z,46.67
2023-02-12T03:46:09.543Z,47.49
2023-02-12T03:47:09.537Z,46.42
2023-02-12T03:48:09.554Z,46.27
2023-02-12T03:49:09.496Z,46.35
2023-02-12T03:50:09.486Z,46.19
2023-02-12T03:51:09.532Z,46.69
2023-02-12T03:52:09.491Z,46.68
2023-02-12T03:53:09.502Z,46.32
2023-02-12T03:54:09.473Z,46.35
2023-02-12T03:55:09.438Z,46.36
2023-02-12T03:56:09.451Z,46.35
2023-02-12T03:57:09.437Z,46.37
2023-02-12T03:58:09.690Z,46.39
2023-02-12T03:59:09.428Z,46.30
2023-02-12T04:00:09.461Z,46.71
2023-02-12T04:01:09.512Z,47.36
2023-02-12T04:02:09.506Z,46.33
2023-02-12T04:03:09.411Z,48.50
2023-02-12T04:04:09.611Z,46.25
2023-02-12T04:05:09.436Z,46.29
2023-02-12T04:06:09.415Z,49.20
2023-02-12T04:07:09.374Z,46.72
2023-02-12T04:08:09.466Z,46.34
2023-02-12T04:09:09.404Z,46.33
2023-02-12T04:10:09.356Z,46.52
2023-02-12T04:11:09.360Z,51.14
2023-02-12T04:12:09.392Z,48.74
2023-02-12T04:13:09.334Z,48.54
2023-02-12T04:14:09.317Z,46.36
2023-02-12T04:15:09.368Z,46.30
2023-02-12T04:16:09.400Z,50.87
2023-02-12T04:17:09.340Z,46.44
2023-02-12T04:18:09.326Z,46.48
2023-02-12T04:19:09.288Z,48.42
2023-02-12T04:20:09.315Z,46.76
2023-02-12T04:21:09.302Z,46.31
2023-02-12T04:22:09.288Z,46.34
2023-02-12T04:23:09.271Z,46.24
2023-02-12T04:24:09.338Z,47.75
2023-02-12T04:25:09.295Z,46.44
2023-02-12T04:26:09.356Z,46.32
2023-02-12T04:27:09.282Z,48.27
2023-02-12T04:28:09.330Z,46.78
2023-02-12T04:29:09.266Z,47.47
2023-02-12T04:30:09.293Z,46.44
2023-02-12T04:31:09.485Z,48.48
2023-02-12T04:32:09.250Z,47.46
2023-02-12T04:33:09.232Z,46.92
2023-02-12T04:34:09.235Z,50.24
2023-02-12T04:35:09.304Z,47.84
2023-02-12T04:36:09.291Z,48.07
2023-02-12T04:37:09.223Z,47.50
2023-02-12T04:38:09.203Z,46.71
2023-02-12T04:39:09.197Z,47.54
2023-02-12T04:40:09.158Z,49.21
2023-02-12T04:41:09.274Z,50.09
2023-02-12T04:42:09.176Z,47.22
2023-02-12T04:43:09.240Z,46.45
2023-02-12T04:44:09.189Z,48.22
2023-02-12T04:45:09.161Z,48.97
2023-02-12T04:46:09.192Z,47.55
2023-02-12T04:47:10.187Z,50.89
2023-02-12T04:48:09.166Z,51.51
2023-02-12T04:49:09.165Z,47.22
2023-02-12T04:50:09.131Z,47.01
2023-02-12T04:51:09.116Z,49.29
2023-02-12T04:52:09.119Z,48.23
2023-02-12T04:53:09.165Z,48.32
2023-02-12T04:54:09.110Z,46.22
2023-02-12T04:55:09.094Z,46.31
2023-02-12T04:56:09.087Z,46.94
2023-02-12T04:57:09.151Z,47.55
2023-02-12T04:58:09.092Z,47.38
2023-02-12T04:59:09.076Z,47.48
2023-02-12T05:00:09.066Z,46.82
2023-02-12T05:01:09.184Z,46.30
2023-02-12T05:02:09.084Z,46.99
2023-02-12T05:03:09.072Z,47.87
2023-02-12T05:04:09.043Z,46.33
2023-02-12T05:05:09.164Z,46.29
2023-02-12T05:06:09.034Z,46.34
2023-02-12T05:07:09.031Z,46.39
2023-02-12T05:08:09.029Z,46.52
2023-02-12T05:09:09.065Z,46.31
2023-02-12T05:10:08.988Z,49.11
2023-02-12T05:11:09.012Z,47.39
2023-02-12T05:12:08.991Z,47.44
2023-02-12T05:13:08.980Z,49.30
2023-02-12T05:14:09.008Z,46.90
2023-02-12T05:15:08.985Z,47.70
2023-02-12T05:16:09.072Z,46.88
2023-02-12T05:17:08.972Z,47.08
2023-02-12T05:18:08.954Z,46.88
2023-02-12T05:19:08.967Z,46.69
2023-02-12T05:20:08.978Z,46.43
2023-02-12T05:21:08.966Z,46.46
2023-02-12T05:22:08.950Z,46.55
2023-02-12T05:23:08.936Z,47.38
2023-02-12T05:24:08.968Z,46.49
2023-02-12T05:25:08.962Z,46.41
2023-02-12T05:26:08.961Z,46.45
2023-02-12T05:27:08.945Z,47.24
2023-02-12T05:28:09.000Z,47.91
2023-02-12T05:29:08.901Z,46.29
2023-02-12T05:30:08.915Z,46.79
2023-02-12T05:31:08.999Z,46.69
2023-02-12T05:32:08.994Z,46.62
2023-02-12T05:33:08.931Z,46.51
2023-02-12T05:34:08.870Z,46.48
2023-02-12T05:35:08.891Z,47.24
2023-02-12T05:36:09.879Z,48.24
2023-02-12T05:37:08.880Z,47.60
2023-02-12T05:38:08.848Z,48.81
2023-02-12T05:39:08.833Z,47.38
2023-02-12T05:40:08.907Z,47.64
2023-02-12T05:41:08.825Z,46.55
2023-02-12T05:42:08.916Z,46.46
2023-02-12T05:43:08.811Z,46.67
2023-02-12T05:44:08.797Z,49.82
2023-02-12T05:45:08.803Z,49.14
2023-02-12T05:46:08.839Z,47.32
2023-02-12T05:47:08.817Z,47.13
2023-02-12T05:48:08.819Z,48.59
2023-02-12T05:49:08.795Z,48.43
2023-02-12T05:50:08.785Z,46.64
2023-02-12T05:51:08.795Z,47.23
2023-02-12T05:52:08.809Z,47.09
2023-02-12T05:53:08.771Z,46.52
2023-02-12T05:54:08.850Z,47.21
2023-02-12T05:55:08.753Z,49.56
2023-02-12T05:56:08.769Z,46.69
2023-02-12T05:57:08.771Z,48.79
2023-02-12T05:58:08.792Z,46.70
2023-02-12T05:59:08.758Z,46.33
2023-02-12T06:00:08.711Z,48.39
2023-02-12T06:01:08.711Z,48.46
2023-02-12T06:02:09.850Z,47.45
2023-02-12T06:03:08.868Z,47.18
2023-02-12T06:04:08.871Z,48.13
2023-02-12T06:05:08.806Z,47.58
2023-02-12T06:06:08.701Z,46.44
2023-02-12T06:07:08.666Z,46.41
2023-02-12T06:08:08.692Z,46.36
2023-02-12T06:09:08.726Z,46.40
2023-02-12T06:10:08.661Z,47.34
2023-02-12T06:11:08.685Z,55.14
2023-02-12T06:12:08.676Z,46.67
2023-02-12T06:13:08.651Z,47.73
2023-02-12T06:14:08.669Z,48.44
2023-02-12T06:15:08.663Z,48.15
2023-02-12T06:16:08.668Z,46.83
2023-02-12T06:17:08.629Z,49.25
2023-02-12T06:18:08.630Z,47.90
2023-02-12T06:19:08.620Z,47.30
2023-02-12T06:20:08.813Z,46.95
2023-02-12T06:21:08.622Z,46.28
2023-02-12T06:22:08.580Z,48.49
2023-02-12T06:23:08.663Z,47.80
2023-02-12T06:24:08.606Z,48.32
2023-02-12T06:25:08.626Z,47.54
2023-02-12T06:26:08.584Z,51.10
2023-02-12T06:27:08.579Z,46.38
2023-02-12T06:28:08.627Z,47.33
2023-02-12T06:29:08.539Z,50.79
2023-02-12T06:30:08.559Z,51.26
2023-02-12T06:31:08.880Z,48.30
2023-02-12T06:32:08.853Z,51.08
2023-02-12T06:33:08.718Z,50.44
2023-02-12T06:34:08.521Z,46.47
2023-02-12T06:35:08.529Z,46.60
2023-02-12T06:36:08.541Z,46.50
2023-02-12T06:37:08.537Z,47.80
2023-02-12T06:38:08.555Z,48.12
2023-02-12T06:39:08.522Z,46.09
2023-02-12T06:40:08.504Z,46.76
2023-02-12T06:41:08.495Z,46.44
2023-02-12T06:42:08.495Z,47.76
2023-02-12T06:43:08.496Z,47.73
2023-02-12T06:44:08.471Z,49.78
2023-02-12T06:45:08.480Z,49.93
2023-02-12T06:46:08.465Z,50.90
2023-02-12T06:47:08.512Z,50.00
2023-02-12T06:48:08.448Z,49.86
2023-02-12T06:49:08.462Z,50.90
2023-02-12T06:50:08.424Z,47.18
2023-02-12T06:51:08.443Z,48.33
2023-02-12T06:52:08.523Z,47.94
2023-02-12T06:53:08.545Z,49.63
2023-02-12T06:54:08.434Z,50.02
2023-02-12T06:55:08.439Z,47.60
2023-02-12T06:56:08.377Z,47.53
2023-02-12T06:57:08.406Z,48.21
2023-02-12T06:58:08.409Z,50.37
2023-02-12T06:59:08.417Z,49.63
2023-02-12T07:00:08.425Z,47.60
2023-02-12T07:01:08.691Z,51.59
2023-02-12T07:02:08.988Z,60.07
2023-02-12T07:03:08.418Z,61.54
2023-02-12T07:04:08.404Z,60.47
2023-02-12T07:05:08.347Z,49.93
2023-02-12T07:06:08.327Z,48.21
2023-02-12T07:07:08.599Z,48.09
2023-02-12T07:08:08.475Z,51.61
2023-02-12T07:09:08.432Z,47.37
2023-02-12T07:10:08.399Z,50.40
2023-02-12T07:11:08.312Z,49.08
2023-02-12T07:12:11.298Z,48.55
2023-02-12T07:13:08.512Z,49.18
2023-02-12T07:14:08.277Z,48.70
2023-02-12T07:15:08.349Z,48.46
2023-02-12T07:16:08.312Z,47.72
2023-02-12T07:17:08.296Z,51.97
2023-02-12T07:18:08.270Z,49.94
2023-02-12T07:19:08.254Z,47.26
2023-02-12T07:20:08.287Z,51.12
2023-02-12T07:21:08.282Z,50.22
2023-02-12T07:22:08.245Z,49.71
2023-02-12T07:23:08.289Z,50.03
2023-02-12T07:24:08.210Z,48.58
2023-02-12T07:25:08.221Z,48.35
2023-02-12T07:26:08.225Z,51.30
2023-02-12T07:27:08.213Z,52.16
2023-02-12T07:28:08.247Z,50.44
2023-02-12T07:29:08.214Z,51.00
2023-02-12T07:30:08.302Z,50.96
2023-02-12T07:31:08.321Z,50.21
2023-02-12T07:32:08.261Z,49.27
2023-02-12T07:33:08.177Z,52.28
2023-02-12T07:34:08.172Z,48.62
2023-02-12T07:35:08.194Z,50.89
2023-02-12T07:36:08.162Z,53.44
2023-02-12T07:37:08.166Z,51.60
2023-02-12T07:38:08.280Z,52.09
2023-02-12T07:39:08.158Z,50.35
2023-02-12T07:40:08.163Z,48.23
2023-02-12T07:41:10.551Z,47.62
2023-02-12T07:42:10.137Z,50.41
2023-02-12T07:43:08.106Z,49.53
2023-02-12T07:44:09.744Z,49.38
2023-02-12T07:45:08.898Z,50.86
2023-02-12T07:46:08.206Z,47.66
2023-02-12T07:47:09.113Z,52.00
2023-02-12T07:48:08.089Z,50.55
2023-02-12T07:49:08.134Z,48.11
2023-02-12T07:50:08.086Z,49.64
2023-02-12T07:51:08.103Z,50.94
2023-02-12T07:52:08.058Z,52.12
2023-02-12T07:53:08.085Z,51.00
2023-02-12T07:54:08.522Z,48.51
2023-02-12T07:55:08.116Z,50.13
2023-02-12T07:56:08.130Z,50.07
2023-02-12T07:57:08.037Z,51.83
2023-02-12T07:58:08.045Z,50.38
2023-02-12T07:59:08.035Z,49.90
2023-02-12T08:00:08.004Z,52.46
2023-02-12T08:01:08.018Z,57.66
2023-02-12T08:02:08.012Z,60.49
2023-02-12T08:03:08.020Z,61.38
2023-02-12T08:04:08.115Z,61.29
2023-02-12T08:05:07.990Z,59.98
2023-02-12T08:06:08.046Z,55.45
2023-02-12T08:07:07.980Z,48.77
2023-02-12T08:08:08.139Z,49.90
2023-02-12T08:09:07.990Z,50.43
2023-02-12T08:10:07.969Z,51.06
2023-02-12T08:11:07.960Z,53.76
2023-02-12T08:12:07.989Z,56.18
2023-02-12T08:13:08.054Z,50.95
2023-02-12T08:14:07.973Z,51.01
2023-02-12T08:15:07.948Z,51.60
2023-02-12T08:16:07.984Z,49.76
2023-02-12T08:17:07.939Z,50.16
2023-02-12T08:18:07.920Z,52.31
2023-02-12T08:19:18.720Z,53.26
2023-02-12T08:20:09.948Z,52.13
2023-02-12T08:21:07.902Z,60.63
2023-02-12T08:22:07.903Z,60.89
2023-02-12T08:23:07.900Z,61.51
2023-02-12T08:24:07.929Z,61.39
2023-02-12T08:25:07.924Z,61.18
2023-02-12T08:26:07.892Z,60.76
2023-02-12T08:27:07.896Z,61.20
2023-02-12T08:28:07.874Z,61.94
2023-02-12T08:29:07.842Z,61.22
2023-02-12T08:30:07.850Z,60.80
2023-02-12T08:31:07.949Z,51.70
2023-02-12T08:32:07.847Z,54.87
2023-02-12T08:33:07.836Z,49.99
2023-02-12T08:34:07.830Z,49.08
2023-02-12T08:35:07.859Z,52.90
2023-02-12T08:36:07.845Z,49.82
2023-02-12T08:37:07.850Z,50.67
2023-02-12T08:38:07.809Z,50.49
2023-02-12T08:39:07.814Z,49.65
2023-02-12T08:40:07.792Z,52.87
2023-02-12T08:41:07.857Z,49.99
2023-02-12T08:42:07.823Z,52.15
2023-02-12T08:43:07.792Z,48.89
2023-02-12T08:44:07.814Z,51.59
2023-02-12T08:45:07.773Z,49.90
2023-02-12T08:46:07.822Z,51.03
2023-02-12T08:47:07.803Z,52.55
2023-02-12T08:48:07.733Z,53.02
2023-02-12T08:49:07.783Z,52.36
2023-02-12T08:50:07.748Z,54.15
2023-02-12T08:51:07.745Z,50.81
2023-02-12T08:52:07.787Z,52.52
2023-02-12T08:53:07.719Z,49.96
2023-02-12T08:54:07.773Z,50.35
2023-02-12T08:55:07.722Z,51.29
2023-02-12T08:56:07.717Z,49.53
2023-02-12T08:57:07.715Z,48.82
2023-02-12T08:58:07.695Z,53.14
2023-02-12T08:59:07.755Z,51.69
2023-02-12T09:00:07.736Z,51.01
2023-02-12T09:01:07.725Z,52.48
2023-02-12T09:02:07.775Z,52.05
2023-02-12T09:03:07.793Z,52.31
2023-02-12T09:04:07.660Z,54.69
2023-02-12T09:05:07.668Z,61.86
2023-02-12T09:06:07.654Z,51.69
2023-02-12T09:07:10.642Z,51.59
2023-02-12T09:08:08.733Z,51.54
2023-02-12T09:09:07.637Z,49.13
2023-02-12T09:10:07.666Z,53.40
2023-02-12T09:11:07.728Z,52.15
2023-02-12T09:12:07.633Z,51.69
2023-02-12T09:13:07.697Z,51.72
2023-02-12T09:14:07.645Z,50.29
2023-02-12T09:15:07.646Z,50.23
2023-02-12T09:16:07.621Z,51.48
2023-02-12T09:17:07.645Z,51.89
2023-02-12T09:18:07.613Z,52.92
2023-02-12T09:19:07.592Z,50.51
2023-02-12T09:20:07.604Z,51.58
2023-02-12T09:21:07.621Z,50.47
2023-02-12T09:22:07.724Z,49.19
2023-02-12T09:23:07.703Z,48.76
2023-02-12T09:24:07.751Z,51.45
2023-02-12T09:25:07.596Z,51.11
2023-02-12T09:26:07.799Z,50.36
2023-02-12T09:27:07.560Z,50.12
2023-02-12T09:28:07.589Z,48.68
2023-02-12T09:29:07.570Z,49.76
2023-02-12T09:30:07.550Z,48.27
2023-02-12T09:31:07.640Z,53.51
2023-02-12T09:32:07.571Z,51.27
2023-02-12T09:33:07.537Z,51.62
2023-02-12T09:34:07.603Z,49.18
2023-02-12T09:35:07.510Z,50.35
2023-02-12T09:36:07.506Z,48.84
2023-02-12T09:37:07.516Z,49.74
2023-02-12T09:38:07.697Z,50.84
2023-02-12T09:39:07.540Z,53.05
2023-02-12T09:40:07.493Z,50.81
2023-02-12T09:41:07.504Z,55.25
2023-02-12T09:42:07.544Z,53.09
2023-02-12T09:43:07.524Z,52.55
2023-02-12T09:44:07.512Z,49.10
2023-02-12T09:45:07.467Z,50.09
2023-02-12T09:46:07.528Z,49.22
2023-02-12T09:47:07.490Z,51.16
2023-02-12T09:48:07.431Z,48.82
2023-02-12T09:49:07.447Z,50.11
2023-02-12T09:50:07.532Z,48.84
2023-02-12T09:51:07.434Z,53.44
2023-02-12T09:52:07.453Z,53.99
2023-02-12T09:53:07.470Z,53.23
2023-02-12T09:54:07.446Z,53.89
2023-02-12T09:55:07.450Z,51.29
2023-02-12T09:56:07.432Z,51.32
2023-02-12T09:57:07.436Z,52.12
2023-02-12T09:58:07.390Z,49.10
2023-02-12T09:59:07.398Z,52.93
2023-02-12T10:00:07.494Z,53.91
2023-02-12T10:01:07.409Z,54.84
2023-02-12T10:02:08.435Z,61.04
2023-02-12T10:03:07.375Z,60.57
2023-02-12T10:04:07.463Z,60.41
2023-02-12T10:05:07.512Z,51.38
2023-02-12T10:06:07.403Z,52.24
2023-02-12T10:07:07.379Z,50.63
2023-02-12T10:08:07.376Z,55.09
2023-02-12T10:09:07.378Z,53.01
2023-02-12T10:10:08.106Z,52.89
2023-02-12T10:11:08.391Z,51.03
2023-02-12T10:12:07.357Z,50.62
2023-02-12T10:13:07.436Z,52.79
2023-02-12T10:14:07.393Z,53.52
2023-02-12T10:15:07.407Z,52.16
2023-02-12T10:16:07.383Z,51.55
2023-02-12T10:17:07.375Z,51.66
2023-02-12T10:18:07.348Z,51.07
2023-02-12T10:19:07.358Z,50.23
2023-02-12T10:20:07.353Z,53.45
2023-02-12T10:21:07.346Z,49.52
2023-02-12T10:22:07.419Z,52.64
2023-02-12T10:23:07.354Z,50.15
2023-02-12T10:24:07.383Z,51.50
2023-02-12T10:25:07.291Z,52.06
2023-02-12T10:26:07.354Z,56.54
2023-02-12T10:27:07.322Z,51.46
2023-02-12T10:28:07.330Z,51.89
2023-02-12T10:29:07.294Z,54.10
2023-02-12T10:30:07.303Z,52.40
2023-02-12T10:31:07.368Z,54.55
2023-02-12T10:32:07.318Z,51.53
2023-02-12T10:33:07.294Z,52.57
2023-02-12T10:34:07.288Z,50.86
2023-02-12T10:35:07.288Z,52.35
2023-02-12T10:36:07.253Z,55.66
2023-02-12T10:37:07.282Z,54.73
2023-02-12T10:38:07.246Z,57.30
2023-02-12T10:39:07.252Z,53.83
2023-02-12T10:40:07.261Z,53.51
2023-02-12T10:41:07.238Z,53.69
2023-02-12T10:42:08.247Z,51.63
2023-02-12T10:43:09.726Z,52.29
2023-02-12T10:44:07.272Z,51.57
2023-02-12T10:45:07.187Z,53.61
2023-02-12T10:46:07.284Z,51.46
2023-02-12T10:47:07.184Z,51.97
2023-02-12T10:48:07.210Z,52.94
2023-02-12T10:49:07.172Z,53.63
2023-02-12T10:50:07.190Z,52.80
2023-02-12T10:51:07.158Z,55.12
2023-02-12T10:52:07.154Z,52.17
2023-02-12T10:53:07.194Z,55.42
2023-02-12T10:54:07.151Z,54.99
2023-02-12T10:55:07.134Z,52.26
2023-02-12T10:56:07.148Z,49.19
2023-02-12T10:57:07.155Z,51.42
2023-02-12T10:58:07.236Z,52.73
2023-02-12T10:59:07.198Z,52.45
2023-02-12T11:00:07.114Z,53.06
2023-02-12T11:01:07.116Z,53.60
2023-02-12T11:02:07.116Z,53.48
2023-02-12T11:03:07.145Z,51.74
2023-02-12T11:04:07.220Z,51.12
2023-02-12T11:05:07.150Z,52.14
2023-02-12T11:06:07.142Z,53.95
2023-02-12T11:07:07.120Z,54.57
2023-02-12T11:08:07.109Z,53.97
2023-02-12T11:09:07.066Z,52.28
2023-02-12T11:10:07.130Z,53.48
2023-02-12T11:11:07.101Z,51.45
2023-02-12T11:12:07.081Z,54.42
2023-02-12T11:13:07.061Z,54.38
2023-02-12T11:14:07.087Z,53.47
2023-02-12T11:15:07.079Z,51.77
2023-02-12T11:16:07.190Z,51.07
2023-02-12T11:17:07.026Z,52.13
2023-02-12T11:18:07.077Z,50.65
2023-02-12T11:19:07.058Z,49.35
2023-02-12T11:20:07.024Z,52.27
2023-02-12T11:21:07.485Z,52.01
2023-02-12T11:22:07.172Z,49.84
2023-02-12T11:23:07.004Z,51.55
2023-02-12T11:24:07.003Z,52.84
2023-02-12T11:25:07.035Z,51.82
2023-02-12T11:26:07.058Z,49.80
2023-02-12T11:27:07.017Z,51.17
2023-02-12T11:28:07.110Z,49.91
2023-02-12T11:29:07.187Z,52.01
2023-02-12T11:30:06.963Z,50.73
2023-02-12T11:31:07.061Z,50.29
2023-02-12T11:32:07.144Z,50.80
2023-02-12T11:33:07.028Z,48.63
2023-02-12T11:34:06.973Z,50.05
2023-02-12T11:35:06.986Z,50.01
2023-02-12T11:36:07.694Z,51.60
2023-02-12T11:37:08.019Z,52.52
2023-02-12T11:38:06.956Z,51.25
2023-02-12T11:39:06.945Z,49.50
2023-02-12T11:40:06.971Z,50.94
2023-02-12T11:41:07.913Z,49.25
2023-02-12T11:42:06.964Z,50.70
2023-02-12T11:43:06.987Z,52.75
2023-02-12T11:44:06.944Z,52.79
2023-02-12T11:45:06.989Z,51.17
2023-02-12T11:46:07.301Z,48.43
2023-02-12T11:47:06.994Z,49.80
2023-02-12T11:48:06.924Z,57.19
2023-02-12T11:49:06.953Z,48.82
2023-02-12T11:50:06.981Z,49.70
2023-02-12T11:51:06.908Z,48.86
2023-02-12T11:52:06.891Z,48.57
2023-02-12T11:53:06.888Z,48.01
2023-02-12T11:54:06.880Z,51.32
2023-02-12T11:55:07.178Z,47.08
2023-02-12T11:56:06.871Z,51.96
2023-02-12T11:57:06.883Z,50.03
2023-02-12T11:58:07.176Z,50.05
2023-02-12T11:59:06.855Z,50.40
2023-02-12T12:00:06.838Z,50.17
2023-02-12T12:01:06.930Z,50.04
2023-02-12T12:02:06.907Z,49.35
2023-02-12T12:03:06.829Z,49.43
2023-02-12T12:04:06.843Z,50.69
2023-02-12T12:05:06.800Z,47.70
2023-02-12T12:06:06.856Z,51.18
2023-02-12T12:07:06.811Z,51.89
2023-02-12T12:08:06.841Z,49.90
2023-02-12T12:09:06.814Z,50.94
2023-02-12T12:10:06.818Z,49.69
2023-02-12T12:11:06.800Z,49.23
2023-02-12T12:12:06.786Z,52.07
2023-02-12T12:13:06.789Z,50.00
2023-02-12T12:14:06.927Z,49.67
2023-02-12T12:15:06.934Z,52.62
2023-02-12T12:16:07.283Z,49.62
2023-02-12T12:17:06.786Z,52.03
2023-02-12T12:18:06.760Z,49.85
2023-02-12T12:19:06.775Z,51.91
2023-02-12T12:20:06.786Z,50.44
2023-02-12T12:21:06.742Z,48.51
2023-02-12T12:22:06.719Z,48.70
2023-02-12T12:23:06.711Z,49.93
2023-02-12T12:24:06.734Z,52.16
2023-02-12T12:25:06.764Z,48.99
2023-02-12T12:26:06.833Z,48.69
2023-02-12T12:27:06.720Z,46.81
2023-02-12T12:28:06.726Z,50.59
2023-02-12T12:29:06.781Z,50.29
2023-02-12T12:30:06.712Z,50.06
2023-02-12T12:31:06.757Z,52.40
2023-02-12T12:32:06.797Z,53.32
2023-02-12T12:33:06.783Z,50.09
2023-02-12T12:34:06.687Z,51.47
2023-02-12T12:35:06.745Z,49.80
2023-02-12T12:36:06.738Z,51.33
2023-02-12T12:37:06.694Z,53.47
2023-02-12T12:38:06.677Z,49.91
2023-02-12T12:39:06.664Z,52.62
2023-02-12T12:40:06.672Z,51.30
2023-02-12T12:41:06.690Z,50.08
2023-02-12T12:42:06.633Z,49.93
2023-02-12T12:43:06.673Z,50.65
2023-02-12T12:44:06.664Z,50.23
2023-02-12T12:45:06.653Z,49.38
2023-02-12T12:46:06.716Z,50.82
2023-02-12T12:47:06.664Z,52.83
2023-02-12T12:48:06.625Z,53.33
2023-02-12T12:49:06.594Z,49.97
2023-02-12T12:50:06.624Z,49.21
2023-02-12T12:51:06.594Z,51.78
2023-02-12T12:52:06.589Z,50.64